Ana Sayfa
METAR-TAF:

METAR-TAF

Havaalanları :

Dedeağaç, Yunanistan

Enlem: 40-51N, Boylam: 025-55E, yükseklik: 7 m

Güncel hava durumu gözlemi

Rapor saat 17:50 UTC de 4 saat ve 40 dakika önce yapıldı.
Rüzgar değişken yönden 3 kt
Sıcaklık 15°C
Nem 82%
Basınç 1020 hPa
Görüş mesafesi 10 km veya daha fazla
2000 ft yükseklikte az bulutlu

METAR: LGAL 161750Z VRB03KT 9999 FEW020 15/12 Q1020

Saat: 00:30 (22:30 UTC)

Tahmin

Rapor saat 20:00 UTC de 2 saat ve 30 dakika önce yapıldı.
Ayın 16'si saat 21 UTC'den ayın 17'si saat 06 UTC'ye kadar geçerli Tahmin
Rüzgar doğu/kuzeydoğudan 14 kt
Görüş mesafesi 10 km veya daha fazla
1800 ft yükseklikte parçalı bulutlu
6000 ft yükseklikte parçalı bulutlu

TAF: LGAL 162000Z 1621/1706 06014KT 9999 SCT018 SCT060

4.000'den fazla havaalanı için hava durumu gözlemleri ve tahminleri (METAR ve TAF raporları).

Kullanılabilir istasyonlar harita üzerinde sarı ve kırmızı noktalarla gösterilir.

İstasyonun adını görmek için fareyi noktanın üzerinde gezdirin.

Sonrasında hava gözlem ve tahminlerini görmek için tıklayın.

Haritayı değiştirmek için: yaklaştırmak için siyah artı işaretli yeşil düğmeye ve uzaklaştırmak için de eksi işaretli düğmeye hızla tıklayın; bitişik haritalar için yeşil okları kullanın.


METAR-TAF: